sensor_id;sensor_type;location;lat;lon;timestamp;temperature;humidity
67820;DHT22;54618;52.018;5.576;2022-10-13T00:01:13;17.90;59.80
67820;DHT22;54618;52.018;5.576;2022-10-13T00:03:41;17.90;59.80
67820;DHT22;54618;52.018;5.576;2022-10-13T00:06:08;17.90;59.80
67820;DHT22;54618;52.018;5.576;2022-10-13T00:08:35;17.90;59.80
67820;DHT22;54618;52.018;5.576;2022-10-13T00:11:01;17.90;59.80
67820;DHT22;54618;52.018;5.576;2022-10-13T00:13:27;17.90;59.80
67820;DHT22;54618;52.018;5.576;2022-10-13T00:15:52;17.90;59.80
67820;DHT22;54618;52.018;5.576;2022-10-13T00:18:18;17.90;59.80
67820;DHT22;54618;52.018;5.576;2022-10-13T00:20:47;17.90;59.80
67820;DHT22;54618;52.018;5.576;2022-10-13T00:23:13;17.90;59.80
67820;DHT22;54618;52.018;5.576;2022-10-13T00:25:45;17.90;59.80
67820;DHT22;54618;52.018;5.576;2022-10-13T00:28:11;17.90;59.90
67820;DHT22;54618;52.018;5.576;2022-10-13T00:30:37;17.90;59.90
67820;DHT22;54618;52.018;5.576;2022-10-13T00:33:03;17.90;59.90
67820;DHT22;54618;52.018;5.576;2022-10-13T00:35:29;17.90;59.90
67820;DHT22;54618;52.018;5.576;2022-10-13T00:37:55;17.90;59.90
67820;DHT22;54618;52.018;5.576;2022-10-13T00:40:20;17.90;59.90
67820;DHT22;54618;52.018;5.576;2022-10-13T00:42:46;17.90;59.90
67820;DHT22;54618;52.018;5.576;2022-10-13T00:45:26;17.90;59.90
67820;DHT22;54618;52.018;5.576;2022-10-13T00:48:00;17.90;59.90
67820;DHT22;54618;52.018;5.576;2022-10-13T00:50:34;17.80;59.90
67820;DHT22;54618;52.018;5.576;2022-10-13T00:53:02;17.90;59.90
67820;DHT22;54618;52.018;5.576;2022-10-13T00:55:31;17.90;59.90
67820;DHT22;54618;52.018;5.576;2022-10-13T00:57:59;17.90;59.90
67820;DHT22;54618;52.018;5.576;2022-10-13T01:00:27;17.90;59.90
67820;DHT22;54618;52.018;5.576;2022-10-13T01:02:53;17.90;59.90
67820;DHT22;54618;52.018;5.576;2022-10-13T01:05:20;17.90;59.90
67820;DHT22;54618;52.018;5.576;2022-10-13T01:07:47;17.90;59.90
67820;DHT22;54618;52.018;5.576;2022-10-13T01:10:26;17.90;59.90
67820;DHT22;54618;52.018;5.576;2022-10-13T01:13:07;17.90;60.10
67820;DHT22;54618;52.018;5.576;2022-10-13T01:15:41;17.90;60.00
67820;DHT22;54618;52.018;5.576;2022-10-13T01:23:58;17.90;60.00
67820;DHT22;54618;52.018;5.576;2022-10-13T01:32:24;17.90;60.10
67820;DHT22;54618;52.018;5.576;2022-10-13T01:37:43;17.90;60.10
67820;DHT22;54618;52.018;5.576;2022-10-13T01:40:21;17.80;60.10
67820;DHT22;54618;52.018;5.576;2022-10-13T01:42:55;17.80;60.10
67820;DHT22;54618;52.018;5.576;2022-10-13T01:45:27;17.90;60.10
67820;DHT22;54618;52.018;5.576;2022-10-13T01:47:54;17.80;60.10
67820;DHT22;54618;52.018;5.576;2022-10-13T01:50:22;17.80;60.10
67820;DHT22;54618;52.018;5.576;2022-10-13T01:52:48;17.80;60.10
67820;DHT22;54618;52.018;5.576;2022-10-13T01:55:15;17.80;60.10
67820;DHT22;54618;52.018;5.576;2022-10-13T01:57:42;17.80;60.10
67820;DHT22;54618;52.018;5.576;2022-10-13T02:00:16;17.90;60.20
67820;DHT22;54618;52.018;5.576;2022-10-13T02:11:15;17.80;60.20
67820;DHT22;54618;52.018;5.576;2022-10-13T02:14:01;17.90;60.20
67820;DHT22;54618;52.018;5.576;2022-10-13T02:16:31;17.90;60.30
67820;DHT22;54618;52.018;5.576;2022-10-13T02:18:59;17.80;60.20
67820;DHT22;54618;52.018;5.576;2022-10-13T02:21:27;17.90;60.30
67820;DHT22;54618;52.018;5.576;2022-10-13T02:23:52;17.90;60.30
67820;DHT22;54618;52.018;5.576;2022-10-13T02:26:18;17.80;60.30
67820;DHT22;54618;52.018;5.576;2022-10-13T02:28:47;17.90;60.30
67820;DHT22;54618;52.018;5.576;2022-10-13T02:31:12;17.80;60.30
67820;DHT22;54618;52.018;5.576;2022-10-13T02:33:38;17.90;60.30
67820;DHT22;54618;52.018;5.576;2022-10-13T02:36:04;17.80;60.30
67820;DHT22;54618;52.018;5.576;2022-10-13T02:38:30;17.80;60.30
67820;DHT22;54618;52.018;5.576;2022-10-13T02:40:55;17.90;60.30
67820;DHT22;54618;52.018;5.576;2022-10-13T02:43:21;17.90;60.40
67820;DHT22;54618;52.018;5.576;2022-10-13T02:45:46;17.90;60.40
67820;DHT22;54618;52.018;5.576;2022-10-13T02:48:12;17.80;60.30
67820;DHT22;54618;52.018;5.576;2022-10-13T02:50:37;17.80;60.30
67820;DHT22;54618;52.018;5.576;2022-10-13T02:53:03;17.90;60.40
67820;DHT22;54618;52.018;5.576;2022-10-13T02:55:28;17.90;60.40
67820;DHT22;54618;52.018;5.576;2022-10-13T02:57:54;17.90;61.00
67820;DHT22;54618;52.018;5.576;2022-10-13T03:00:20;17.80;60.30
67820;DHT22;54618;52.018;5.576;2022-10-13T03:02:45;17.90;60.40
67820;DHT22;54618;52.018;5.576;2022-10-13T03:05:11;17.80;60.30
67820;DHT22;54618;52.018;5.576;2022-10-13T03:07:36;17.80;60.40
67820;DHT22;54618;52.018;5.576;2022-10-13T03:10:03;17.80;60.40
67820;DHT22;54618;52.018;5.576;2022-10-13T03:12:29;17.80;60.40
67820;DHT22;54618;52.018;5.576;2022-10-13T03:14:55;17.80;60.40
67820;DHT22;54618;52.018;5.576;2022-10-13T03:17:20;17.80;60.50
67820;DHT22;54618;52.018;5.576;2022-10-13T03:19:46;17.80;60.50
67820;DHT22;54618;52.018;5.576;2022-10-13T03:22:12;17.80;60.50
67820;DHT22;54618;52.018;5.576;2022-10-13T03:24:40;17.90;60.60
67820;DHT22;54618;52.018;5.576;2022-10-13T03:27:06;17.80;60.50
67820;DHT22;54618;52.018;5.576;2022-10-13T03:29:31;17.80;60.40
67820;DHT22;54618;52.018;5.576;2022-10-13T03:31:58;17.80;60.50
67820;DHT22;54618;52.018;5.576;2022-10-13T03:34:23;17.80;60.50
67820;DHT22;54618;52.018;5.576;2022-10-13T03:36:49;17.80;60.50
67820;DHT22;54618;52.018;5.576;2022-10-13T03:39:15;17.80;60.50
67820;DHT22;54618;52.018;5.576;2022-10-13T03:41:41;17.90;60.50
67820;DHT22;54618;52.018;5.576;2022-10-13T03:44:08;17.80;60.50
67820;DHT22;54618;52.018;5.576;2022-10-13T03:46:34;17.90;60.50
67820;DHT22;54618;52.018;5.576;2022-10-13T03:48:59;17.80;60.50
67820;DHT22;54618;52.018;5.576;2022-10-13T03:51:25;17.90;60.60
67820;DHT22;54618;52.018;5.576;2022-10-13T03:53:51;17.80;60.60
67820;DHT22;54618;52.018;5.576;2022-10-13T03:56:19;17.80;60.60
67820;DHT22;54618;52.018;5.576;2022-10-13T03:58:45;17.80;60.60
67820;DHT22;54618;52.018;5.576;2022-10-13T04:01:12;17.80;60.50
67820;DHT22;54618;52.018;5.576;2022-10-13T04:03:38;17.80;60.60
67820;DHT22;54618;52.018;5.576;2022-10-13T04:06:04;17.80;60.60
67820;DHT22;54618;52.018;5.576;2022-10-13T04:08:32;17.80;60.50
67820;DHT22;54618;52.018;5.576;2022-10-13T04:11:06;17.80;60.60
67820;DHT22;54618;52.018;5.576;2022-10-13T04:13:32;17.90;60.60
67820;DHT22;54618;52.018;5.576;2022-10-13T04:16:06;17.80;60.60
67820;DHT22;54618;52.018;5.576;2022-10-13T04:18:32;17.90;60.60
67820;DHT22;54618;52.018;5.576;2022-10-13T04:20:58;17.80;60.60
67820;DHT22;54618;52.018;5.576;2022-10-13T04:23:24;17.90;60.70
67820;DHT22;54618;52.018;5.576;2022-10-13T04:25:49;17.80;60.60
67820;DHT22;54618;52.018;5.576;2022-10-13T04:28:15;17.90;60.70
67820;DHT22;54618;52.018;5.576;2022-10-13T04:30:41;17.80;60.60
67820;DHT22;54618;52.018;5.576;2022-10-13T04:33:06;17.80;61.20
67820;DHT22;54618;52.018;5.576;2022-10-13T04:35:32;17.80;60.70
67820;DHT22;54618;52.018;5.576;2022-10-13T04:37:58;17.80;60.70
67820;DHT22;54618;52.018;5.576;2022-10-13T04:40:24;17.90;60.70
67820;DHT22;54618;52.018;5.576;2022-10-13T04:42:50;17.80;60.70
67820;DHT22;54618;52.018;5.576;2022-10-13T04:45:16;17.80;60.70
67820;DHT22;54618;52.018;5.576;2022-10-13T04:47:41;17.90;60.70
67820;DHT22;54618;52.018;5.576;2022-10-13T04:50:08;17.80;60.70
67820;DHT22;54618;52.018;5.576;2022-10-13T04:52:34;17.80;60.70
67820;DHT22;54618;52.018;5.576;2022-10-13T04:55:00;17.80;60.70
67820;DHT22;54618;52.018;5.576;2022-10-13T04:57:25;17.80;60.70
67820;DHT22;54618;52.018;5.576;2022-10-13T04:59:51;17.80;60.70
67820;DHT22;54618;52.018;5.576;2022-10-13T05:02:17;17.80;60.70
67820;DHT22;54618;52.018;5.576;2022-10-13T05:04:42;17.80;60.80
67820;DHT22;54618;52.018;5.576;2022-10-13T05:07:08;17.80;60.80
67820;DHT22;54618;52.018;5.576;2022-10-13T05:09:33;17.80;60.80
67820;DHT22;54618;52.018;5.576;2022-10-13T05:11:59;17.80;60.80
67820;DHT22;54618;52.018;5.576;2022-10-13T05:14:24;17.80;60.80
67820;DHT22;54618;52.018;5.576;2022-10-13T05:16:50;17.80;60.80
67820;DHT22;54618;52.018;5.576;2022-10-13T05:19:15;17.80;60.80
67820;DHT22;54618;52.018;5.576;2022-10-13T05:21:41;17.80;61.40
67820;DHT22;54618;52.018;5.576;2022-10-13T05:24:07;17.80;60.80
67820;DHT22;54618;52.018;5.576;2022-10-13T05:26:38;17.90;60.90
67820;DHT22;54618;52.018;5.576;2022-10-13T05:29:03;17.90;60.90
67820;DHT22;54618;52.018;5.576;2022-10-13T05:31:31;17.80;60.80
67820;DHT22;54618;52.018;5.576;2022-10-13T05:33:56;17.80;60.90
67820;DHT22;54618;52.018;5.576;2022-10-13T05:36:26;17.80;60.80
67820;DHT22;54618;52.018;5.576;2022-10-13T05:38:53;17.80;60.80
67820;DHT22;54618;52.018;5.576;2022-10-13T05:41:19;17.80;60.80
67820;DHT22;54618;52.018;5.576;2022-10-13T05:43:45;17.80;60.90
67820;DHT22;54618;52.018;5.576;2022-10-13T05:46:11;17.90;60.90
67820;DHT22;54618;52.018;5.576;2022-10-13T05:48:36;17.80;60.80
67820;DHT22;54618;52.018;5.576;2022-10-13T05:51:05;17.90;60.90
67820;DHT22;54618;52.018;5.576;2022-10-13T05:53:34;17.80;60.90
67820;DHT22;54618;52.018;5.576;2022-10-13T05:56:05;17.80;60.90
67820;DHT22;54618;52.018;5.576;2022-10-13T05:58:33;17.80;60.90
67820;DHT22;54618;52.018;5.576;2022-10-13T06:01:01;17.80;60.90
67820;DHT22;54618;52.018;5.576;2022-10-13T06:03:27;17.80;60.90
67820;DHT22;54618;52.018;5.576;2022-10-13T06:05:52;17.90;61.00
67820;DHT22;54618;52.018;5.576;2022-10-13T06:08:18;17.80;60.90
67820;DHT22;54618;52.018;5.576;2022-10-13T06:10:44;17.80;61.00
67820;DHT22;54618;52.018;5.576;2022-10-13T06:13:10;17.80;61.00
67820;DHT22;54618;52.018;5.576;2022-10-13T06:15:36;17.80;61.00
67820;DHT22;54618;52.018;5.576;2022-10-13T06:18:01;17.90;61.10
67820;DHT22;54618;52.018;5.576;2022-10-13T06:20:31;17.80;61.00
67820;DHT22;54618;52.018;5.576;2022-10-13T06:22:56;17.90;61.10
67820;DHT22;54618;52.018;5.576;2022-10-13T06:25:22;17.80;61.00
67820;DHT22;54618;52.018;5.576;2022-10-13T06:27:47;17.80;61.00
67820;DHT22;54618;52.018;5.576;2022-10-13T06:30:13;17.80;61.00
67820;DHT22;54618;52.018;5.576;2022-10-13T06:32:38;17.80;61.10
67820;DHT22;54618;52.018;5.576;2022-10-13T06:35:04;17.80;61.00
67820;DHT22;54618;52.018;5.576;2022-10-13T06:37:30;17.80;61.10
67820;DHT22;54618;52.018;5.576;2022-10-13T06:39:56;17.80;61.10
67820;DHT22;54618;52.018;5.576;2022-10-13T06:42:21;17.80;61.10
67820;DHT22;54618;52.018;5.576;2022-10-13T06:44:47;17.80;61.10
67820;DHT22;54618;52.018;5.576;2022-10-13T06:47:12;17.80;61.10
67820;DHT22;54618;52.018;5.576;2022-10-13T06:49:38;17.80;61.10
67820;DHT22;54618;52.018;5.576;2022-10-13T06:52:04;17.80;61.10
67820;DHT22;54618;52.018;5.576;2022-10-13T06:54:30;17.80;61.70
67820;DHT22;54618;52.018;5.576;2022-10-13T06:56:55;17.80;61.10
67820;DHT22;54618;52.018;5.576;2022-10-13T06:59:21;17.80;61.10
67820;DHT22;54618;52.018;5.576;2022-10-13T07:01:47;17.80;61.10
67820;DHT22;54618;52.018;5.576;2022-10-13T07:04:13;17.80;61.10
67820;DHT22;54618;52.018;5.576;2022-10-13T07:06:39;17.80;61.10
67820;DHT22;54618;52.018;5.576;2022-10-13T07:09:05;17.80;61.10
67820;DHT22;54618;52.018;5.576;2022-10-13T07:11:31;17.80;61.10
67820;DHT22;54618;52.018;5.576;2022-10-13T07:13:57;17.90;61.20
67820;DHT22;54618;52.018;5.576;2022-10-13T07:16:23;17.80;61.20
67820;DHT22;54618;52.018;5.576;2022-10-13T07:18:48;17.80;61.30
67820;DHT22;54618;52.018;5.576;2022-10-13T07:21:14;17.80;61.20
67820;DHT22;54618;52.018;5.576;2022-10-13T07:23:40;17.80;61.20
67820;DHT22;54618;52.018;5.576;2022-10-13T07:26:11;17.80;61.30
67820;DHT22;54618;52.018;5.576;2022-10-13T07:28:37;17.80;61.30
67820;DHT22;54618;52.018;5.576;2022-10-13T07:31:08;17.80;61.30
67820;DHT22;54618;52.018;5.576;2022-10-13T07:33:36;17.80;61.30
67820;DHT22;54618;52.018;5.576;2022-10-13T07:36:02;17.80;61.30
67820;DHT22;54618;52.018;5.576;2022-10-13T07:38:27;17.80;61.30
67820;DHT22;54618;52.018;5.576;2022-10-13T07:40:53;17.80;61.30
67820;DHT22;54618;52.018;5.576;2022-10-13T07:43:18;17.80;61.40
67820;DHT22;54618;52.018;5.576;2022-10-13T07:45:45;17.90;61.40
67820;DHT22;54618;52.018;5.576;2022-10-13T07:48:10;17.80;61.40
67820;DHT22;54618;52.018;5.576;2022-10-13T07:50:36;17.80;61.40
67820;DHT22;54618;52.018;5.576;2022-10-13T07:53:02;17.80;61.40
67820;DHT22;54618;52.018;5.576;2022-10-13T07:55:28;17.80;61.40
67820;DHT22;54618;52.018;5.576;2022-10-13T07:57:53;17.80;61.40
67820;DHT22;54618;52.018;5.576;2022-10-13T08:00:19;17.80;61.40
67820;DHT22;54618;52.018;5.576;2022-10-13T08:02:49;17.80;61.40
67820;DHT22;54618;52.018;5.576;2022-10-13T08:05:15;17.80;61.50
67820;DHT22;54618;52.018;5.576;2022-10-13T08:07:41;17.80;61.50
67820;DHT22;54618;52.018;5.576;2022-10-13T08:10:07;17.80;61.40
67820;DHT22;54618;52.018;5.576;2022-10-13T08:12:34;17.90;61.60
67820;DHT22;54618;52.018;5.576;2022-10-13T08:15:00;17.80;61.40
67820;DHT22;54618;52.018;5.576;2022-10-13T08:17:26;17.80;61.50
67820;DHT22;54618;52.018;5.576;2022-10-13T08:19:51;17.90;61.50
67820;DHT22;54618;52.018;5.576;2022-10-13T08:22:17;17.80;61.50
67820;DHT22;54618;52.018;5.576;2022-10-13T08:24:42;17.80;61.50
67820;DHT22;54618;52.018;5.576;2022-10-13T08:27:18;17.80;61.50
67820;DHT22;54618;52.018;5.576;2022-10-13T08:29:45;17.80;61.50
67820;DHT22;54618;52.018;5.576;2022-10-13T08:32:11;17.80;61.50
67820;DHT22;54618;52.018;5.576;2022-10-13T08:34:37;17.80;61.50
67820;DHT22;54618;52.018;5.576;2022-10-13T08:37:03;17.80;61.50
67820;DHT22;54618;52.018;5.576;2022-10-13T08:39:29;17.80;61.50
67820;DHT22;54618;52.018;5.576;2022-10-13T08:41:55;17.80;61.60
67820;DHT22;54618;52.018;5.576;2022-10-13T08:44:38;17.80;61.60
67820;DHT22;54618;52.018;5.576;2022-10-13T08:49:35;17.80;61.70
67820;DHT22;54618;52.018;5.576;2022-10-13T08:52:04;17.80;61.70
67820;DHT22;54618;52.018;5.576;2022-10-13T08:54:31;17.80;61.70
67820;DHT22;54618;52.018;5.576;2022-10-13T08:56:57;17.80;61.70
67820;DHT22;54618;52.018;5.576;2022-10-13T08:59:23;17.80;61.80
67820;DHT22;54618;52.018;5.576;2022-10-13T09:01:52;17.80;61.80
67820;DHT22;54618;52.018;5.576;2022-10-13T09:04:31;17.80;61.80
67820;DHT22;54618;52.018;5.576;2022-10-13T09:09:38;17.80;61.80
67820;DHT22;54618;52.018;5.576;2022-10-13T09:12:04;17.80;61.80
67820;DHT22;54618;52.018;5.576;2022-10-13T09:14:39;17.80;61.90
67820;DHT22;54618;52.018;5.576;2022-10-13T09:17:32;17.80;62.50
67820;DHT22;54618;52.018;5.576;2022-10-13T09:20:24;17.80;61.90
67820;DHT22;54618;52.018;5.576;2022-10-13T09:23:20;17.80;61.90
67820;DHT22;54618;52.018;5.576;2022-10-13T09:25:49;17.80;62.00
67820;DHT22;54618;52.018;5.576;2022-10-13T09:28:25;17.80;61.90
67820;DHT22;54618;52.018;5.576;2022-10-13T09:31:14;17.80;61.90
67820;DHT22;54618;52.018;5.576;2022-10-13T09:33:41;17.80;62.00
67820;DHT22;54618;52.018;5.576;2022-10-13T09:36:14;17.80;62.00
67820;DHT22;54618;52.018;5.576;2022-10-13T09:39:21;17.80;62.00
67820;DHT22;54618;52.018;5.576;2022-10-13T09:41:47;17.80;62.00
67820;DHT22;54618;52.018;5.576;2022-10-13T09:44:27;17.80;62.00
67820;DHT22;54618;52.018;5.576;2022-10-13T09:46:56;17.80;61.90
67820;DHT22;54618;52.018;5.576;2022-10-13T09:49:38;17.80;62.00
67820;DHT22;54618;52.018;5.576;2022-10-13T09:54:51;17.80;62.10
67820;DHT22;54618;52.018;5.576;2022-10-13T10:00:05;17.80;62.10
67820;DHT22;54618;52.018;5.576;2022-10-13T10:08:20;17.80;62.10
67820;DHT22;54618;52.018;5.576;2022-10-13T10:10:47;17.80;62.20
67820;DHT22;54618;52.018;5.576;2022-10-13T10:13:13;17.80;62.20
67820;DHT22;54618;52.018;5.576;2022-10-13T10:16:06;17.80;62.20
67820;DHT22;54618;52.018;5.576;2022-10-13T10:18:44;17.80;62.20
67820;DHT22;54618;52.018;5.576;2022-10-13T10:21:30;17.80;62.20
67820;DHT22;54618;52.018;5.576;2022-10-13T10:24:29;17.80;62.20
67820;DHT22;54618;52.018;5.576;2022-10-13T10:27:00;17.80;62.20
67820;DHT22;54618;52.018;5.576;2022-10-13T10:29:45;17.80;62.80
67820;DHT22;54618;52.018;5.576;2022-10-13T10:34:59;17.80;62.20
67820;DHT22;54618;52.018;5.576;2022-10-13T10:45:44;17.80;62.30
67820;DHT22;54618;52.018;5.576;2022-10-13T10:48:24;17.80;62.30
67820;DHT22;54618;52.018;5.576;2022-10-13T10:50:52;17.80;62.30
67820;DHT22;54618;52.018;5.576;2022-10-13T10:53:30;17.80;62.30
67820;DHT22;54618;52.018;5.576;2022-10-13T10:59:15;17.80;62.30
67820;DHT22;54618;52.018;5.576;2022-10-13T11:04:33;17.80;62.40
67820;DHT22;54618;52.018;5.576;2022-10-13T11:07:03;17.80;62.40
67820;DHT22;54618;52.018;5.576;2022-10-13T11:17:32;17.80;62.40
67820;DHT22;54618;52.018;5.576;2022-10-13T11:19:58;17.80;62.40
67820;DHT22;54618;52.018;5.576;2022-10-13T11:22:29;17.80;62.50
67820;DHT22;54618;52.018;5.576;2022-10-13T11:24:58;17.80;62.50
67820;DHT22;54618;52.018;5.576;2022-10-13T11:27:26;17.80;62.50
67820;DHT22;54618;52.018;5.576;2022-10-13T11:29:59;17.80;62.50
67820;DHT22;54618;52.018;5.576;2022-10-13T11:52:28;17.80;62.80
67820;DHT22;54618;52.018;5.576;2022-10-13T11:55:08;17.80;62.80
67820;DHT22;54618;52.018;5.576;2022-10-13T11:57:35;17.70;62.70
67820;DHT22;54618;52.018;5.576;2022-10-13T12:00:02;17.80;62.70
67820;DHT22;54618;52.018;5.576;2022-10-13T12:02:28;17.80;62.70
67820;DHT22;54618;52.018;5.576;2022-10-13T12:05:15;17.80;62.80
67820;DHT22;54618;52.018;5.576;2022-10-13T12:07:48;17.80;62.80
67820;DHT22;54618;52.018;5.576;2022-10-13T12:10:22;17.80;62.80
67820;DHT22;54618;52.018;5.576;2022-10-13T12:12:49;17.70;62.70
67820;DHT22;54618;52.018;5.576;2022-10-13T12:15:33;17.80;62.80
67820;DHT22;54618;52.018;5.576;2022-10-13T12:18:00;17.80;62.80
67820;DHT22;54618;52.018;5.576;2022-10-13T12:20:29;17.80;62.80
67820;DHT22;54618;52.018;5.576;2022-10-13T12:22:55;17.80;62.80
67820;DHT22;54618;52.018;5.576;2022-10-13T12:25:23;17.80;62.70
67820;DHT22;54618;52.018;5.576;2022-10-13T12:27:52;17.80;62.70
67820;DHT22;54618;52.018;5.576;2022-10-13T12:32:53;17.80;62.70
67820;DHT22;54618;52.018;5.576;2022-10-13T12:35:23;17.80;62.80
67820;DHT22;54618;52.018;5.576;2022-10-13T12:37:49;17.80;62.70
67820;DHT22;54618;52.018;5.576;2022-10-13T12:40:17;17.80;62.70
67820;DHT22;54618;52.018;5.576;2022-10-13T12:42:43;17.80;62.80
67820;DHT22;54618;52.018;5.576;2022-10-13T12:45:20;17.80;62.80
67820;DHT22;54618;52.018;5.576;2022-10-13T12:47:50;17.80;62.80
67820;DHT22;54618;52.018;5.576;2022-10-13T12:53:09;17.80;62.80
67820;DHT22;54618;52.018;5.576;2022-10-13T12:55:52;17.80;62.80
67820;DHT22;54618;52.018;5.576;2022-10-13T12:58:23;17.80;62.80
67820;DHT22;54618;52.018;5.576;2022-10-13T13:01:31;17.80;62.80
67820;DHT22;54618;52.018;5.576;2022-10-13T13:04:45;17.80;62.80
67820;DHT22;54618;52.018;5.576;2022-10-13T13:06:57;17.80;62.80
67820;DHT22;54618;52.018;5.576;2022-10-13T13:09:32;17.80;62.80
67820;DHT22;54618;52.018;5.576;2022-10-13T13:12:22;17.80;62.80
67820;DHT22;54618;52.018;5.576;2022-10-13T13:14:51;17.80;62.80
67820;DHT22;54618;52.018;5.576;2022-10-13T13:19:47;17.80;62.80
67820;DHT22;54618;52.018;5.576;2022-10-13T13:22:13;17.80;62.80
67820;DHT22;54618;52.018;5.576;2022-10-13T13:24:39;17.80;62.80
67820;DHT22;54618;52.018;5.576;2022-10-13T13:27:23;17.80;62.80
67820;DHT22;54618;52.018;5.576;2022-10-13T13:29:49;17.80;62.80
67820;DHT22;54618;52.018;5.576;2022-10-13T13:32:19;17.80;62.80
67820;DHT22;54618;52.018;5.576;2022-10-13T13:34:48;17.80;62.80
67820;DHT22;54618;52.018;5.576;2022-10-13T13:39:48;17.80;62.80
67820;DHT22;54618;52.018;5.576;2022-10-13T13:42:14;17.80;62.80
67820;DHT22;54618;52.018;5.576;2022-10-13T13:44:43;17.80;62.80
67820;DHT22;54618;52.018;5.576;2022-10-13T13:47:22;17.80;62.90
67820;DHT22;54618;52.018;5.576;2022-10-13T13:49:49;17.80;62.90
67820;DHT22;54618;52.018;5.576;2022-10-13T13:52:17;17.80;62.90
67820;DHT22;54618;52.018;5.576;2022-10-13T13:54:43;17.80;62.90
67820;DHT22;54618;52.018;5.576;2022-10-13T13:57:10;17.80;62.90
67820;DHT22;54618;52.018;5.576;2022-10-13T13:59:37;17.80;62.90
67820;DHT22;54618;52.018;5.576;2022-10-13T14:02:03;17.80;63.00
67820;DHT22;54618;52.018;5.576;2022-10-13T14:04:29;17.80;63.00
67820;DHT22;54618;52.018;5.576;2022-10-13T14:06:54;17.80;63.00
67820;DHT22;54618;52.018;5.576;2022-10-13T14:09:20;17.80;63.00
67820;DHT22;54618;52.018;5.576;2022-10-13T14:11:49;17.80;63.00
67820;DHT22;54618;52.018;5.576;2022-10-13T14:14:15;17.80;63.00
67820;DHT22;54618;52.018;5.576;2022-10-13T14:16:40;17.80;63.00
67820;DHT22;54618;52.018;5.576;2022-10-13T14:19:07;17.80;63.00
67820;DHT22;54618;52.018;5.576;2022-10-13T14:21:32;17.80;63.00
67820;DHT22;54618;52.018;5.576;2022-10-13T14:23:58;17.80;63.00
67820;DHT22;54618;52.018;5.576;2022-10-13T14:26:23;17.80;63.10
67820;DHT22;54618;52.018;5.576;2022-10-13T14:28:58;17.80;63.10
67820;DHT22;54618;52.018;5.576;2022-10-13T14:31:23;17.80;63.10
67820;DHT22;54618;52.018;5.576;2022-10-13T14:33:49;17.80;63.10
67820;DHT22;54618;52.018;5.576;2022-10-13T14:36:15;17.80;63.10
67820;DHT22;54618;52.018;5.576;2022-10-13T14:38:40;17.80;63.10
67820;DHT22;54618;52.018;5.576;2022-10-13T14:41:06;17.80;63.10
67820;DHT22;54618;52.018;5.576;2022-10-13T14:43:32;17.80;63.20
67820;DHT22;54618;52.018;5.576;2022-10-13T14:46:04;17.80;63.10
67820;DHT22;54618;52.018;5.576;2022-10-13T14:48:33;17.80;63.20
67820;DHT22;54618;52.018;5.576;2022-10-13T14:51:04;17.80;63.20
67820;DHT22;54618;52.018;5.576;2022-10-13T14:53:35;17.80;63.20
67820;DHT22;54618;52.018;5.576;2022-10-13T14:56:00;17.80;63.20
67820;DHT22;54618;52.018;5.576;2022-10-13T14:58:26;17.80;63.20
67820;DHT22;54618;52.018;5.576;2022-10-13T15:00:52;17.80;63.20
67820;DHT22;54618;52.018;5.576;2022-10-13T15:03:20;17.80;63.20
67820;DHT22;54618;52.018;5.576;2022-10-13T15:05:49;17.80;63.30
67820;DHT22;54618;52.018;5.576;2022-10-13T15:08:14;17.80;63.30
67820;DHT22;54618;52.018;5.576;2022-10-13T15:10:40;17.80;63.30
67820;DHT22;54618;52.018;5.576;2022-10-13T15:13:05;17.80;63.30
67820;DHT22;54618;52.018;5.576;2022-10-13T15:15:31;17.80;63.20
67820;DHT22;54618;52.018;5.576;2022-10-13T15:17:56;17.80;63.30
67820;DHT22;54618;52.018;5.576;2022-10-13T15:20:22;17.80;63.30
67820;DHT22;54618;52.018;5.576;2022-10-13T15:22:47;17.80;63.30
67820;DHT22;54618;52.018;5.576;2022-10-13T15:25:13;17.80;63.40
67820;DHT22;54618;52.018;5.576;2022-10-13T15:27:39;17.80;63.30
67820;DHT22;54618;52.018;5.576;2022-10-13T15:30:08;17.80;63.90
67820;DHT22;54618;52.018;5.576;2022-10-13T15:32:34;17.80;63.30
67820;DHT22;54618;52.018;5.576;2022-10-13T15:34:59;17.80;63.30
67820;DHT22;54618;52.018;5.576;2022-10-13T15:37:25;17.80;63.30
67820;DHT22;54618;52.018;5.576;2022-10-13T15:39:50;17.80;63.30
67820;DHT22;54618;52.018;5.576;2022-10-13T15:42:16;17.80;63.20
67820;DHT22;54618;52.018;5.576;2022-10-13T15:44:42;17.80;63.20
67820;DHT22;54618;52.018;5.576;2022-10-13T15:47:07;17.80;63.20
67820;DHT22;54618;52.018;5.576;2022-10-13T15:49:35;17.80;63.20
67820;DHT22;54618;52.018;5.576;2022-10-13T15:52:03;17.80;63.20
67820;DHT22;54618;52.018;5.576;2022-10-13T15:54:29;17.80;63.10
67820;DHT22;54618;52.018;5.576;2022-10-13T15:56:55;17.80;63.10
67820;DHT22;54618;52.018;5.576;2022-10-13T15:59:20;17.80;63.10
67820;DHT22;54618;52.018;5.576;2022-10-13T16:01:46;17.80;63.10
67820;DHT22;54618;52.018;5.576;2022-10-13T16:04:12;17.80;63.10
67820;DHT22;54618;52.018;5.576;2022-10-13T16:06:37;17.80;63.10
67820;DHT22;54618;52.018;5.576;2022-10-13T16:09:03;17.80;63.10
67820;DHT22;54618;52.018;5.576;2022-10-13T16:11:29;17.80;63.10
67820;DHT22;54618;52.018;5.576;2022-10-13T16:13:54;17.80;63.10
67820;DHT22;54618;52.018;5.576;2022-10-13T16:16:20;17.80;63.10
67820;DHT22;54618;52.018;5.576;2022-10-13T16:18:49;17.80;63.10
67820;DHT22;54618;52.018;5.576;2022-10-13T16:21:21;17.80;63.10
67820;DHT22;54618;52.018;5.576;2022-10-13T16:23:47;17.80;63.10
67820;DHT22;54618;52.018;5.576;2022-10-13T16:26:14;17.80;63.10
67820;DHT22;54618;52.018;5.576;2022-10-13T16:28:40;17.80;63.10
67820;DHT22;54618;52.018;5.576;2022-10-13T16:31:08;17.80;63.10
67820;DHT22;54618;52.018;5.576;2022-10-13T16:33:36;17.80;63.10
67820;DHT22;54618;52.018;5.576;2022-10-13T16:36:08;17.80;63.10
67820;DHT22;54618;52.018;5.576;2022-10-13T16:38:34;17.80;63.10
67820;DHT22;54618;52.018;5.576;2022-10-13T16:41:04;17.80;63.10
67820;DHT22;54618;52.018;5.576;2022-10-13T16:43:30;17.90;63.10
67820;DHT22;54618;52.018;5.576;2022-10-13T16:45:57;17.80;63.70
67820;DHT22;54618;52.018;5.576;2022-10-13T16:48:23;17.80;63.10
67820;DHT22;54618;52.018;5.576;2022-10-13T16:50:48;17.80;63.10
67820;DHT22;54618;52.018;5.576;2022-10-13T16:53:14;17.80;63.10
67820;DHT22;54618;52.018;5.576;2022-10-13T16:55:39;17.80;63.10
67820;DHT22;54618;52.018;5.576;2022-10-13T16:58:05;17.80;63.10
67820;DHT22;54618;52.018;5.576;2022-10-13T17:00:31;17.80;63.10
67820;DHT22;54618;52.018;5.576;2022-10-13T17:02:56;17.80;63.10
67820;DHT22;54618;52.018;5.576;2022-10-13T17:05:22;17.80;63.10
67820;DHT22;54618;52.018;5.576;2022-10-13T17:07:47;17.80;63.10
67820;DHT22;54618;52.018;5.576;2022-10-13T17:10:13;17.80;63.10
67820;DHT22;54618;52.018;5.576;2022-10-13T17:12:38;17.80;63.10